Time;durP1;ratioP1;P1;durP2;ratioP2;P2;SDS_P1;SDS_P2;PMS_P1;PMS_P2;Temp;Humidity;BMP_temperature;BMP_pressure;BME280_temperature;BME280_humidity;BME280_pressure;Samples;Min_cycle;Max_cycle;Signal;HPM_P1;HPM_P2
2022/04/04 00:01:41;;;;;;;13.20;3.58;;;21.50;65.20;;;;;;5008891;28;20091;-72
2022/04/04 00:04:08;;;;;;;15.20;3.42;;;21.50;64.60;;;;;;5008772;28;20025;-73
2022/04/04 00:06:34;;;;;;;14.75;3.30;;;21.50;64.20;;;;;;5009178;28;20030;-72
2022/04/04 00:09:01;;;;;;;21.17;5.15;;;21.40;63.70;;;;;;5008122;28;20401;-71
2022/04/04 00:11:27;;;;;;;19.60;5.00;;;21.40;63.30;;;;;;5009260;28;20030;-71
2022/04/04 00:13:54;;;;;;;16.73;4.18;;;21.40;63.10;;;;;;5009213;28;20084;-71
2022/04/04 00:16:20;;;;;;;13.30;3.17;;;21.40;63.20;;;;;;5007886;28;20064;-74
2022/04/04 00:18:47;;;;;;;12.98;3.22;;;21.40;63.20;;;;;;5003079;28;20152;-71
2022/04/04 00:21:13;;;;;;;15.18;3.30;;;21.30;63.20;;;;;;5009934;28;20453;-71
2022/04/04 00:23:40;;;;;;;12.70;4.45;;;21.30;63.20;;;;;;5007165;28;20018;-71
2022/04/04 00:26:06;;;;;;;18.50;10.23;;;21.30;63.20;;;;;;5008555;28;20033;-71
2022/04/04 00:28:33;;;;;;;19.52;10.07;;;21.30;63.30;;;;;;5004276;28;20024;-71
2022/04/04 00:30:59;;;;;;;13.52;6.68;;;21.30;63.20;;;;;;5007185;28;20018;-71
2022/04/04 00:33:26;;;;;;;11.10;3.38;;;21.30;63.10;;;;;;5008882;28;20485;-72
2022/04/04 00:35:52;;;;;;;7.25;3.05;;;21.30;62.90;;;;;;5008550;28;20067;-72
2022/04/04 00:38:19;;;;;;;13.75;2.83;;;21.30;63.00;;;;;;5008193;28;20018;-73
2022/04/04 00:40:45;;;;;;;8.13;2.47;;;21.20;62.90;;;;;;5008891;28;20079;-72
2022/04/04 00:43:12;;;;;;;11.68;2.95;;;21.30;63.00;;;;;;5006981;28;20006;-74
2022/04/04 00:45:43;;;;;;;13.80;2.90;;;21.20;62.90;;;;;;5005681;28;20029;-73
2022/04/04 00:48:09;;;;;;;8.93;2.47;;;21.20;62.90;;;;;;5008199;28;20105;-73
2022/04/04 00:50:36;;;;;;;4.55;2.00;;;21.20;62.90;;;;;;5007947;28;20061;-74
2022/04/04 00:53:02;;;;;;;9.93;3.17;;;21.20;62.90;;;;;;5005699;28;20018;-72
2022/04/04 00:55:29;;;;;;;7.97;2.65;;;21.20;62.90;;;;;;5008436;28;20084;-72
2022/04/04 00:57:56;;;;;;;10.77;3.13;;;21.20;63.00;;;;;;5009227;28;20117;-71
2022/04/04 01:00:22;;;;;;;10.07;3.38;;;21.20;62.90;;;;;;5013427;28;20389;-71
2022/04/04 01:02:49;;;;;;;7.13;1.90;;;21.20;63.00;;;;;;5005726;28;20465;-72
2022/04/04 01:05:15;;;;;;;11.18;3.63;;;21.20;63.30;;;;;;5004995;28;20010;-71
2022/04/04 01:07:42;;;;;;;7.38;2.80;;;21.20;63.30;;;;;;5007656;28;20049;-72
2022/04/04 01:10:09;;;;;;;10.75;2.60;;;21.10;63.40;;;;;;5008107;28;20030;-71
2022/04/04 01:12:36;;;;;;;7.25;1.80;;;21.10;63.50;;;;;;5008162;28;20027;-71
2022/04/04 01:15:03;;;;;;;13.82;2.72;;;21.10;63.60;;;;;;5005907;28;20028;-71
2022/04/04 01:17:30;;;;;;;11.48;2.33;;;21.10;63.80;;;;;;5008215;28;20485;-71
2022/04/04 01:19:57;;;;;;;6.63;2.50;;;21.10;63.80;;;;;;5006742;28;20481;-70
2022/04/04 01:22:24;;;;;;;8.52;2.65;;;21.10;64.00;;;;;;5004134;28;20026;-71
2022/04/04 01:24:51;;;;;;;8.07;2.03;;;21.00;64.10;;;;;;5006574;28;20118;-74
2022/04/04 01:27:17;;;;;;;7.97;2.95;;;21.00;64.10;;;;;;5005404;28;20030;-71
2022/04/04 01:29:44;;;;;;;10.40;2.95;;;21.00;64.10;;;;;;5004258;28;20477;-73
2022/04/04 01:32:11;;;;;;;14.57;2.97;;;21.00;64.10;;;;;;5004874;28;20477;-71
2022/04/04 01:34:38;;;;;;;6.90;2.38;;;21.00;64.20;;;;;;5008349;28;20469;-72
2022/04/04 01:37:05;;;;;;;9.65;2.78;;;21.00;64.20;;;;;;5006719;28;20025;-73
2022/04/04 01:39:31;;;;;;;9.85;2.63;;;21.00;64.30;;;;;;5005400;28;20025;-72
2022/04/04 01:41:58;;;;;;;12.70;3.55;;;21.00;64.20;;;;;;5006263;28;20596;-70
2022/04/04 01:44:24;;;;;;;11.13;2.58;;;21.00;64.20;;;;;;5005990;28;20033;-72
2022/04/04 01:46:51;;;;;;;9.10;2.70;;;20.90;64.10;;;;;;5007930;28;20436;-72
2022/04/04 01:49:17;;;;;;;5.95;1.65;;;20.90;64.20;;;;;;5008093;28;20014;-72
2022/04/04 01:51:44;;;;;;;7.80;2.83;;;20.90;64.20;;;;;;5005723;28;20033;-71
2022/04/04 01:54:10;;;;;;;9.27;2.88;;;20.90;64.20;;;;;;5006798;28;20083;-71
2022/04/04 01:56:37;;;;;;;8.77;2.20;;;20.90;64.20;;;;;;5007455;28;20132;-72
2022/04/04 01:59:04;;;;;;;12.45;3.28;;;20.90;64.20;;;;;;5012922;28;20024;-71
2022/04/04 02:01:34;;;;;;;10.90;2.53;;;20.80;64.00;;;;;;5008435;28;20421;-72
2022/04/04 02:04:02;;;;;;;9.15;2.17;;;20.80;64.00;;;;;;5009340;28;20033;-71
2022/04/04 02:06:28;;;;;;;12.65;3.33;;;20.80;63.90;;;;;;5009847;28;20038;-72
2022/04/04 02:08:55;;;;;;;7.53;2.20;;;20.80;64.60;;;;;;5011246;28;20465;-72
2022/04/04 02:11:22;;;;;;;5.65;2.22;;;20.70;64.00;;;;;;5008244;28;20037;-75
2022/04/04 02:13:49;;;;;;;7.00;2.15;;;20.70;64.30;;;;;;5009550;28;20006;-71
2022/04/04 02:16:15;;;;;;;6.93;1.42;;;20.70;64.40;;;;;;5010802;28;20108;-72
2022/04/04 02:18:42;;;;;;;3.88;1.65;;;20.70;64.60;;;;;;5010296;28;20044;-76
2022/04/04 02:21:09;;;;;;;6.70;1.45;;;20.70;64.60;;;;;;5011075;28;20473;-73
2022/04/04 02:23:37;;;;;;;6.80;1.80;;;20.70;64.70;;;;;;5008454;28;20013;-72
2022/04/04 02:26:04;;;;;;;3.42;1.45;;;20.70;64.90;;;;;;5011788;28;20520;-71
2022/04/04 02:28:30;;;;;;;5.47;1.95;;;20.60;64.90;;;;;;5009078;28;20048;-76
2022/04/04 02:30:57;;;;;;;5.70;2.00;;;20.70;65.10;;;;;;5010932;28;20013;-74
2022/04/04 02:33:24;;;;;;;4.70;1.52;;;20.70;65.20;;;;;;5009307;28;20029;-72
2022/04/04 02:35:52;;;;;;;4.80;1.35;;;20.60;65.30;;;;;;5008985;28;20077;-74
2022/04/04 02:38:22;;;;;;;4.38;1.50;;;20.60;65.20;;;;;;5010290;28;20015;-76
2022/04/04 02:40:48;;;;;;;6.35;1.88;;;20.60;65.40;;;;;;5009163;28;20053;-75
2022/04/04 02:43:15;;;;;;;11.70;3.25;;;20.60;65.50;;;;;;5010348;28;20022;-72
2022/04/04 02:45:42;;;;;;;8.55;1.42;;;20.60;65.60;;;;;;5009511;28;20485;-76
2022/04/04 02:48:09;;;;;;;8.85;1.88;;;20.60;65.70;;;;;;5011646;28;20033;-73
2022/04/04 02:50:35;;;;;;;10.13;2.47;;;20.60;65.80;;;;;;5007555;28;20101;-72
2022/04/04 02:53:02;;;;;;;9.57;2.30;;;20.60;65.80;;;;;;5011075;28;20108;-72
2022/04/04 02:58:17;;;;;;;5.03;1.90;;;20.50;65.90;;;;;;5020371;28;20449;-72
2022/04/04 03:00:45;;;;;;;6.30;1.58;;;20.50;66.00;;;;;;5009647;28;20026;-76
2022/04/04 03:03:12;;;;;;;7.93;2.03;;;20.50;66.10;;;;;;5008628;28;20026;-75
2022/04/04 03:05:39;;;;;;;4.80;1.10;;;20.50;66.10;;;;;;5009589;28;20072;-72
2022/04/04 03:08:06;;;;;;;3.33;1.80;;;20.50;66.00;;;;;;5008893;28;20045;-74
2022/04/04 03:10:34;;;;;;;6.93;1.30;;;20.50;66.00;;;;;;5009130;28;20050;-74
2022/04/04 03:13:40;;;;;;;5.97;1.40;;;20.50;66.10;;;;;;5010517;28;20029;-74
2022/04/04 03:16:06;;;;;;;4.50;1.30;;;20.50;66.00;;;;;;5009044;28;20119;-72
2022/04/04 03:18:35;;;;;;;3.70;1.17;;;20.50;66.00;;;;;;5008825;28;20665;-74
2022/04/04 03:21:41;;;;;;;3.72;1.10;;;20.40;66.10;;;;;;5007710;28;20029;-74
2022/04/04 03:24:47;;;;;;;4.70;1.10;;;20.40;66.30;;;;;;5006630;28;20025;-72
2022/04/04 03:27:14;;;;;;;3.28;1.33;;;20.40;66.30;;;;;;5004758;28;20042;-74
2022/04/04 03:29:41;;;;;;;5.53;1.38;;;20.40;66.50;;;;;;5006450;28;20030;-74
2022/04/04 03:32:08;;;;;;;6.10;1.90;;;20.40;66.60;;;;;;5007011;28;20072;-73
2022/04/04 03:34:38;;;;;;;6.53;1.73;;;20.40;66.80;;;;;;5006501;28;20068;-73
2022/04/04 03:37:06;;;;;;;11.65;2.58;;;20.30;67.00;;;;;;5005352;28;20444;-75
2022/04/04 03:39:32;;;;;;;5.88;2.38;;;20.30;67.20;;;;;;5006867;28;20088;-75
2022/04/04 03:42:03;;;;;;;4.03;1.15;;;20.30;67.20;;;;;;5007056;28;20026;-73
2022/04/04 03:44:30;;;;;;;10.73;1.63;;;20.30;67.50;;;;;;5018982;28;20030;-72
2022/04/04 03:46:57;;;;;;;4.32;1.48;;;20.30;67.50;;;;;;5007890;28;20045;-73
2022/04/04 03:49:24;;;;;;;14.60;2.80;;;20.30;67.60;;;;;;5006622;28;20015;-73
2022/04/04 03:51:51;;;;;;;11.00;2.58;;;20.30;67.60;;;;;;5006593;28;20113;-74
2022/04/04 03:54:18;;;;;;;15.82;3.50;;;20.30;67.70;;;;;;5004968;28;20445;-71
2022/04/04 03:56:46;;;;;;;16.13;1.88;;;20.30;67.80;;;;;;5004878;28;20458;-76
2022/04/04 03:59:13;;;;;;;22.02;4.10;;;20.20;67.90;;;;;;5008043;28;20030;-75
2022/04/04 04:01:39;;;;;;;19.58;3.85;;;20.20;68.00;;;;;;5006888;28;20460;-73
2022/04/04 04:04:06;;;;;;;10.65;1.73;;;20.20;68.10;;;;;;5005412;28;20485;-72
2022/04/04 04:06:33;;;;;;;8.45;2.08;;;20.10;68.10;;;;;;5002710;28;20046;-72
2022/04/04 04:09:00;;;;;;;10.38;2.72;;;20.20;68.10;;;;;;5006693;28;20484;-78
2022/04/04 04:11:28;;;;;;;13.30;2.95;;;20.10;68.10;;;;;;5002066;28;20018;-73
2022/04/04 04:13:54;;;;;;;13.25;3.92;;;20.10;68.60;;;;;;5006980;28;20025;-70
2022/04/04 04:16:23;;;;;;;34.08;29.40;;;20.10;68.80;;;;;;5005670;28;20038;-72
2022/04/04 04:18:50;;;;;;;47.85;36.40;;;20.00;69.30;;;;;;5005073;28;20030;-69
2022/04/04 04:21:16;;;;;;;22.05;17.23;;;19.90;69.60;;;;;;5005818;28;20021;-71
2022/04/04 04:23:44;;;;;;;20.67;9.57;;;19.80;70.30;;;;;;5006608;28;20089;-72
2022/04/04 04:26:12;;;;;;;14.15;4.75;;;19.80;70.20;;;;;;5006047;28;20030;-72
2022/04/04 04:28:39;;;;;;;9.82;3.22;;;19.80;70.10;;;;;;5003035;28;20051;-72
2022/04/04 04:31:06;;;;;;;14.82;5.18;;;19.90;69.90;;;;;;5003986;28;20786;-74
2022/04/04 04:33:33;;;;;;;40.42;22.25;;;19.90;69.70;;;;;;5005624;28;20433;-69
2022/04/04 04:36:00;;;;;;;30.63;16.48;;;19.90;69.60;;;;;;5003486;28;20378;-70
2022/04/04 04:38:27;;;;;;;19.23;9.52;;;19.90;69.70;;;;;;5004240;28;20030;-74
2022/04/04 04:40:54;;;;;;;15.25;5.25;;;19.90;69.80;;;;;;5003527;28;20084;-69
2022/04/04 04:43:20;;;;;;;8.23;2.50;;;19.90;69.60;;;;;;5004606;28;20026;-72
2022/04/04 04:45:47;;;;;;;9.95;3.17;;;19.90;69.60;;;;;;5007609;28;20030;-69
2022/04/04 04:48:14;;;;;;;23.52;4.75;;;19.90;69.70;;;;;;5006472;28;20018;-73
2022/04/04 04:50:41;;;;;;;6.65;1.52;;;19.90;69.70;;;;;;5003240;28;20036;-69
2022/04/04 04:53:07;;;;;;;14.95;3.00;;;19.90;69.70;;;;;;5006228;28;20022;-70
2022/04/04 04:55:34;;;;;;;13.77;2.35;;;19.90;69.70;;;;;;5005851;28;20046;-72
2022/04/04 04:58:00;;;;;;;6.55;1.90;;;19.90;69.90;;;;;;5007360;28;20109;-72
2022/04/04 05:00:28;;;;;;;10.55;1.88;;;19.90;69.80;;;;;;5007385;28;20037;-73
2022/04/04 05:05:41;;;;;;;8.45;1.67;;;19.90;69.80;;;;;;5005121;28;20049;-72
2022/04/04 05:08:09;;;;;;;6.70;2.00;;;20.00;70.10;;;;;;5008229;28;20018;-70
2022/04/04 05:10:35;;;;;;;5.40;2.13;;;20.00;70.30;;;;;;5007802;28;20431;-70
2022/04/04 05:13:02;;;;;;;6.63;2.13;;;20.00;70.30;;;;;;5004761;28;20026;-70
2022/04/04 05:15:28;;;;;;;6.85;1.33;;;20.00;70.30;;;;;;5007542;28;20095;-70
2022/04/04 05:17:55;;;;;;;5.95;1.60;;;20.00;70.20;;;;;;5007127;28;20591;-70
2022/04/04 05:20:21;;;;;;;5.30;1.42;;;20.00;70.10;;;;;;5007277;28;20489;-70
2022/04/04 05:22:48;;;;;;;7.65;1.80;;;20.00;70.00;;;;;;5005772;28;20041;-70
2022/04/04 05:25:15;;;;;;;2.90;1.23;;;20.00;70.10;;;;;;5007850;28;20113;-72
2022/04/04 05:27:42;;;;;;;3.55;1.30;;;20.00;70.20;;;;;;5005749;28;20549;-70
2022/04/04 05:30:10;;;;;;;3.83;1.08;;;20.00;70.20;;;;;;5004398;28;20025;-71
2022/04/04 05:32:37;;;;;;;10.25;1.65;;;20.00;70.30;;;;;;5009144;28;20040;-70
2022/04/04 05:35:08;;;;;;;6.40;1.52;;;20.00;70.40;;;;;;5010510;28;20113;-69
2022/04/04 05:37:35;;;;;;;6.03;1.65;;;20.10;70.50;;;;;;5009098;28;20021;-71
2022/04/04 05:40:03;;;;;;;7.40;2.20;;;20.10;70.70;;;;;;5011954;28;20113;-71
2022/04/04 05:42:31;;;;;;;8.75;2.00;;;20.10;70.80;;;;;;5010496;28;20503;-70
2022/04/04 05:44:57;;;;;;;6.57;1.65;;;20.10;70.80;;;;;;5012729;28;20046;-72
2022/04/04 05:47:24;;;;;;;6.13;1.95;;;20.10;70.70;;;;;;5012658;28;20034;-72
2022/04/04 05:49:50;;;;;;;6.05;1.20;;;20.10;70.60;;;;;;5010609;28;20010;-73
2022/04/04 05:52:18;;;;;;;11.20;1.92;;;20.20;70.60;;;;;;5011685;28;20018;-70
2022/04/04 05:54:54;;;;;;;8.27;3.60;;;20.20;70.60;;;;;;5007928;28;20133;-71
2022/04/04 05:57:32;;;;;;;7.03;2.17;;;20.20;70.50;;;;;;5009181;28;20025;-70
2022/04/04 05:59:58;;;;;;;3.90;1.48;;;20.20;70.50;;;;;;5010497;28;20018;-73
2022/04/04 06:02:27;;;;;;;7.22;2.17;;;20.30;70.40;;;;;;5009728;28;21720;-74
2022/04/04 06:04:54;;;;;;;6.60;1.30;;;20.30;70.30;;;;;;5008360;28;20022;-73
2022/04/04 06:07:20;;;;;;;7.85;1.60;;;20.30;70.30;;;;;;5006249;28;20037;-73
2022/04/04 06:09:47;;;;;;;10.38;2.42;;;20.30;70.20;;;;;;5010367;28;20105;-74
2022/04/04 06:12:13;;;;;;;8.52;2.15;;;20.40;70.10;;;;;;5007453;28;20034;-70
2022/04/04 06:14:40;;;;;;;9.70;1.42;;;20.30;69.90;;;;;;5008954;28;20093;-74
2022/04/04 06:17:06;;;;;;;6.10;1.92;;;20.40;69.90;;;;;;5008460;28;20034;-70
2022/04/04 06:19:34;;;;;;;3.75;2.10;;;20.40;69.70;;;;;;5008961;28;20050;-75
2022/04/04 06:22:03;;;;;;;6.60;2.30;;;20.50;69.70;;;;;;5007835;28;20097;-73
2022/04/04 06:24:31;;;;;;;8.13;1.75;;;20.50;69.50;;;;;;5005074;28;20029;-72
2022/04/04 06:27:01;;;;;;;7.07;1.98;;;20.40;69.30;;;;;;5009350;28;20141;-73
2022/04/04 06:29:28;;;;;;;11.98;1.95;;;20.50;69.40;;;;;;5004834;28;20030;-74
2022/04/04 06:31:56;;;;;;;4.70;1.67;;;20.50;69.20;;;;;;5010913;28;20014;-74
2022/04/04 06:34:24;;;;;;;13.27;2.55;;;20.50;69.10;;;;;;5008022;28;20505;-72
2022/04/04 06:36:52;;;;;;;5.80;1.50;;;20.60;69.00;;;;;;5009796;28;20018;-70
2022/04/04 06:39:19;;;;;;;10.57;2.60;;;20.50;68.90;;;;;;5010853;28;20419;-75
2022/04/04 06:41:46;;;;;;;7.63;1.40;;;20.60;68.90;;;;;;5006402;28;20523;-71
2022/04/04 06:44:13;;;;;;;8.70;1.50;;;20.60;68.80;;;;;;5007811;28;20029;-72
2022/04/04 06:46:40;;;;;;;14.32;1.80;;;20.60;68.70;;;;;;5007398;28;20116;-70
2022/04/04 06:49:07;;;;;;;6.05;2.72;;;20.60;68.60;;;;;;5007995;28;20025;-71
2022/04/04 06:51:35;;;;;;;15.45;1.75;;;20.60;68.60;;;;;;5005693;28;20022;-72
2022/04/04 06:54:05;;;;;;;6.25;1.80;;;20.70;68.60;;;;;;5009975;28;20022;-74
2022/04/04 06:56:32;;;;;;;7.95;1.77;;;20.70;68.50;;;;;;5005472;28;20057;-73
2022/04/04 06:58:59;;;;;;;9.10;2.00;;;20.70;68.40;;;;;;5006409;28;20382;-72
2022/04/04 07:01:25;;;;;;;6.13;1.30;;;20.70;68.40;;;;;;5008333;28;20123;-75
2022/04/04 07:03:52;;;;;;;5.53;1.52;;;20.80;68.60;;;;;;5006623;28;20018;-74
2022/04/04 07:06:19;;;;;;;5.78;1.30;;;20.80;68.60;;;;;;5006175;28;20381;-74
2022/04/04 07:08:45;;;;;;;12.27;1.38;;;20.80;68.60;;;;;;5006666;28;20030;-75
2022/04/04 07:11:13;;;;;;;9.50;2.20;;;20.90;68.70;;;;;;5010115;28;20024;-74
2022/04/04 07:13:40;;;;;;;11.95;2.22;;;20.90;68.70;;;;;;5005483;28;20183;-73
2022/04/04 07:16:07;;;;;;;4.32;1.58;;;20.90;68.40;;;;;;5005171;28;20441;-75
2022/04/04 07:18:35;;;;;;;9.98;2.10;;;20.90;68.10;;;;;;5009053;28;20026;-76
2022/04/04 07:21:05;;;;;;;11.60;1.45;;;20.90;67.80;;;;;;5006038;28;20096;-75
2022/04/04 07:23:35;;;;;;;4.93;2.13;;;20.90;67.60;;;;;;5006985;28;20052;-75
2022/04/04 07:26:03;;;;;;;5.60;1.73;;;21.00;67.50;;;;;;5007291;28;20026;-75
2022/04/04 07:28:29;;;;;;;11.13;1.38;;;21.00;67.40;;;;;;5007191;28;20117;-74
2022/04/04 07:30:56;;;;;;;5.88;2.10;;;21.00;67.30;;;;;;5009092;28;20045;-75
2022/04/04 07:33:22;;;;;;;9.35;1.50;;;21.10;67.20;;;;;;5005222;28;20060;-73
2022/04/04 07:35:49;;;;;;;6.07;1.98;;;21.10;67.20;;;;;;5008991;28;20029;-70
2022/04/04 07:38:16;;;;;;;17.55;2.53;;;21.10;67.00;;;;;;5007934;28;20017;-72
2022/04/04 07:40:43;;;;;;;7.55;1.95;;;21.10;67.30;;;;;;5009894;28;20040;-71
2022/04/04 07:43:09;;;;;;;50.78;5.45;;;21.10;67.60;;;;;;5007552;28;20568;-73
2022/04/04 07:45:36;;;;;;;19.02;3.55;;;21.10;67.40;;;;;;5009553;28;20535;-71
2022/04/04 07:48:08;;;;;;;15.90;2.33;;;21.20;67.50;;;;;;5010220;28;20108;-75
2022/04/04 07:50:36;;;;;;;12.18;3.00;;;21.20;67.50;;;;;;5006815;28;20354;-73
2022/04/04 07:53:03;;;;;;;10.43;1.95;;;21.20;67.50;;;;;;5009568;28;20484;-75
2022/04/04 07:55:30;;;;;;;9.60;2.20;;;21.20;67.50;;;;;;5007044;28;20064;-72
2022/04/04 07:57:56;;;;;;;28.38;3.63;;;21.30;67.30;;;;;;5009350;28;20021;-71
2022/04/04 08:00:24;;;;;;;16.30;4.47;;;21.30;67.20;;;;;;5007443;28;20140;-73
2022/04/04 08:02:51;;;;;;;9.05;3.70;;;21.30;67.40;;;;;;5009173;28;20017;-74
2022/04/04 08:05:19;;;;;;;12.73;3.70;;;21.30;67.30;;;;;;5006353;28;20048;-71
2022/04/04 08:07:48;;;;;;;14.38;3.20;;;21.30;67.00;;;;;;5008551;28;20022;-74
2022/04/04 08:10:16;;;;;;;9.75;2.65;;;21.30;66.80;;;;;;5009668;28;20009;-74
2022/04/04 08:12:43;;;;;;;7.63;1.98;;;21.40;67.00;;;;;;5006323;28;20428;-74
2022/04/04 08:15:10;;;;;;;24.77;4.88;;;21.40;67.00;;;;;;5008880;28;20052;-73
2022/04/04 08:17:37;;;;;;;9.70;4.07;;;21.40;67.00;;;;;;5008111;28;20496;-71
2022/04/04 08:20:05;;;;;;;15.55;2.20;;;21.40;66.90;;;;;;5008891;28;20056;-73
2022/04/04 08:22:37;;;;;;;12.10;2.22;;;21.50;66.80;;;;;;5003704;28;20065;-74
2022/04/04 08:25:03;;;;;;;10.75;2.33;;;21.50;67.10;;;;;;5008826;28;20140;-73
2022/04/04 08:27:30;;;;;;;9.52;1.55;;;21.50;67.10;;;;;;5009207;28;20045;-74
2022/04/04 08:29:56;;;;;;;10.63;2.08;;;21.50;67.10;;;;;;5006608;28;20014;-74
2022/04/04 08:32:23;;;;;;;5.78;1.58;;;21.50;67.10;;;;;;5009248;28;20044;-71
2022/04/04 08:34:49;;;;;;;4.75;1.60;;;21.50;67.10;;;;;;5007497;28;20450;-73
2022/04/04 08:37:17;;;;;;;8.07;1.60;;;21.60;67.30;;;;;;5008760;28;20050;-72
2022/04/04 08:39:47;;;;;;;6.35;1.50;;;21.60;67.30;;;;;;5007087;28;20112;-70
2022/04/04 08:42:16;;;;;;;7.47;2.20;;;21.60;67.40;;;;;;5004914;28;20010;-71
2022/04/04 08:44:45;;;;;;;8.18;2.22;;;21.70;67.50;;;;;;5007518;28;20021;-70
2022/04/04 08:47:12;;;;;;;5.85;1.60;;;21.70;67.40;;;;;;5008093;28;20388;-70
2022/04/04 08:49:40;;;;;;;5.55;1.60;;;21.70;67.30;;;;;;5008865;28;20022;-70
2022/04/04 08:52:07;;;;;;;8.23;1.50;;;21.80;67.10;;;;;;5007166;28;20014;-71
2022/04/04 08:54:34;;;;;;;9.93;2.33;;;21.80;66.90;;;;;;5007171;28;20020;-70
2022/04/04 08:57:01;;;;;;;8.82;2.20;;;21.90;66.90;;;;;;5006094;28;20029;-73
2022/04/04 08:59:27;;;;;;;10.68;2.30;;;21.90;66.80;;;;;;5004610;28;20026;-73
2022/04/04 09:01:54;;;;;;;7.75;1.90;;;21.90;66.50;;;;;;5005918;28;20792;-73
2022/04/04 09:04:23;;;;;;;4.20;1.65;;;21.90;66.40;;;;;;5007652;28;20020;-70
2022/04/04 09:06:52;;;;;;;12.30;2.05;;;21.90;66.50;;;;;;5006597;28;20018;-70
2022/04/04 09:09:25;;;;;;;7.88;2.42;;;22.00;66.60;;;;;;5006544;28;20080;-70
2022/04/04 09:12:15;;;;;;;6.00;1.77;;;22.00;66.50;;;;;;5008577;28;20429;-71
2022/04/04 09:14:51;;;;;;;8.15;1.80;;;22.10;66.40;;;;;;5006073;28;20010;-74
2022/04/04 09:17:20;;;;;;;8.70;1.33;;;22.10;66.30;;;;;;5003790;28;20550;-73
2022/04/04 09:19:47;;;;;;;7.65;1.90;;;22.10;66.20;;;;;;5008828;28;20022;-74
2022/04/04 09:22:15;;;;;;;11.05;2.13;;;22.10;66.00;;;;;;5006403;28;20014;-73
2022/04/04 09:25:02;;;;;;;7.88;1.80;;;22.20;66.00;;;;;;5007047;28;20025;-70
2022/04/04 09:27:32;;;;;;;16.80;2.83;;;22.20;65.90;;;;;;5007515;28;20412;-74
2022/04/04 09:30:03;;;;;;;9.85;2.55;;;22.20;66.40;;;;;;5006775;28;20026;-72
2022/04/04 09:32:42;;;;;;;10.68;3.10;;;22.20;65.90;;;;;;5005457;28;20026;-73
2022/04/04 09:35:16;;;;;;;20.67;2.72;;;22.20;65.90;;;;;;5005311;28;20026;-70
2022/04/04 09:37:48;;;;;;;8.68;2.03;;;22.20;65.80;;;;;;5009038;28;20552;-70
2022/04/04 09:40:25;;;;;;;8.80;2.50;;;22.30;65.30;;;;;;5006571;28;20038;-74
2022/04/04 09:42:52;;;;;;;6.68;1.75;;;22.30;64.80;;;;;;5008026;28;20014;-72
2022/04/04 09:45:20;;;;;;;10.18;2.00;;;22.20;64.70;;;;;;5008475;28;20435;-70
2022/04/04 09:47:56;;;;;;;11.52;2.08;;;22.20;64.70;;;;;;5005047;28;20026;-71
2022/04/04 09:50:36;;;;;;;5.72;1.85;;;22.20;64.70;;;;;;5006833;28;20032;-70
2022/04/04 09:53:05;;;;;;;5.28;1.70;;;22.20;64.80;;;;;;5006082;28;20473;-70
2022/04/04 09:55:37;;;;;;;7.97;1.80;;;22.20;64.80;;;;;;5008056;28;20400;-73
2022/04/04 09:58:06;;;;;;;6.50;1.83;;;22.20;64.90;;;;;;5003818;28;20029;-73
2022/04/04 10:00:36;;;;;;;6.40;1.95;;;22.20;64.90;;;;;;5006836;28;20022;-74
2022/04/04 10:03:04;;;;;;;5.05;1.45;;;22.20;65.00;;;;;;5006719;28;20043;-71
2022/04/04 10:05:31;;;;;;;9.30;1.67;;;22.20;65.10;;;;;;5006319;28;20054;-70
2022/04/04 10:08:00;;;;;;;5.32;2.00;;;22.30;65.20;;;;;;5009115;28;20070;-71
2022/04/04 10:10:29;;;;;;;10.00;2.33;;;22.20;65.20;;;;;;5006456;28;20072;-72
2022/04/04 10:12:57;;;;;;;7.97;1.85;;;22.20;65.30;;;;;;5007431;28;20056;-72
2022/04/04 10:15:25;;;;;;;7.97;2.13;;;22.20;65.20;;;;;;5007844;28;20022;-70
2022/04/04 10:18:31;;;;;;;16.17;3.05;;;22.20;65.30;;;;;;5008626;28;20458;-71
2022/04/04 10:21:37;;;;;;;16.80;2.47;;;22.20;65.20;;;;;;5009863;28;20662;-72
2022/04/04 10:24:23;;;;;;;;;;;22.20;65.10;;;;;;5011390;28;20108;-72
2022/04/04 10:27:29;;;;;;;12.18;2.13;;;22.30;65.60;;;;;;5009207;28;20390;-72
2022/04/04 10:30:50;;;;;;;12.05;2.65;;;22.30;65.80;;;;;;5010058;28;20097;-71
2022/04/04 10:33:59;;;;;;;4.78;2.00;;;22.40;66.10;;;;;;5008255;28;20045;-70
2022/04/04 10:37:20;;;;;;;3.55;2.00;;;22.30;66.30;;;;;;5008926;28;20026;-70
2022/04/04 10:40:27;;;;;;;5.55;2.10;;;22.40;66.60;;;;;;5006563;28;20405;-71
2022/04/04 10:43:28;;;;;;;;;;;22.50;67.10;;;;;;5010737;28;20103;-71
2022/04/04 10:46:34;;;;;;;2.22;1.92;;;22.60;67.60;;;;;;5010453;28;19917;-74
2022/04/04 10:49:21;;;;;;;3.83;1.77;;;22.70;67.80;;;;;;5008932;28;20052;-73
2022/04/04 10:52:27;;;;;;;4.22;1.90;;;22.70;67.90;;;;;;5010797;28;20033;-70
2022/04/04 10:55:32;;;;;;;3.83;1.70;;;22.80;68.20;;;;;;5009489;28;20052;-70
2022/04/04 10:58:38;;;;;;;5.63;2.08;;;22.90;68.50;;;;;;5007468;28;20773;-73
2022/04/04 11:01:24;;;;;;;4.93;2.50;;;23.00;68.40;;;;;;5009741;28;20030;-69
2022/04/04 11:08:13;;;;;;;4.97;2.45;;;23.20;68.20;;;;;;5009478;28;20060;-72
2022/04/04 11:11:21;;;;;;;2.30;1.20;;;23.20;68.30;;;;;;5005605;28;20030;-71
2022/04/04 11:14:31;;;;;;;5.55;1.38;;;23.30;68.40;;;;;;5007099;28;20028;-70
2022/04/04 11:17:06;;;;;;;4.90;1.40;;;23.30;68.60;;;;;;5010946;28;20030;-69
2022/04/04 11:20:10;;;;;;;4.90;1.60;;;23.30;68.40;;;;;;5009097;28;20018;-72
2022/04/04 11:23:17;;;;;;;3.10;1.40;;;23.30;68.60;;;;;;5007492;28;20387;-73
2022/04/04 11:26:23;;;;;;;2.70;2.35;;;23.20;68.70;;;;;;5006607;28;20014;-72
2022/04/04 11:29:29;;;;;;;11.68;2.75;;;23.10;68.70;;;;;;5011216;28;20041;-69
2022/04/04 11:32:40;;;;;;;10.13;2.97;;;23.00;70.20;;;;;;5009158;28;20018;-69
2022/04/04 11:35:10;;;;;;;5.03;2.83;;;22.90;71.30;;;;;;5007922;28;20014;-71
2022/04/04 11:38:25;;;;;;;8.93;3.50;;;22.90;72.50;;;;;;5009229;28;21055;-71
2022/04/04 11:41:36;;;;;;;4.40;2.97;;;22.80;73.60;;;;;;5005516;28;20057;-69
2022/04/04 11:44:48;;;;;;;5.40;2.85;;;22.80;74.50;;;;;;5008554;28;20014;-72
2022/04/04 11:47:54;;;;;;;3.78;3.08;;;22.70;75.30;;;;;;5005546;28;20128;-71
2022/04/04 11:51:00;;;;;;;5.00;3.58;;;22.60;75.70;;;;;;5005106;28;20456;-71
2022/04/04 11:54:11;;;;;;;5.28;3.67;;;22.50;75.70;;;;;;5007029;28;20101;-73
2022/04/04 11:57:17;;;;;;;4.90;3.85;;;22.50;75.60;;;;;;5008089;28;20073;-69
2022/04/04 12:00:23;;;;;;;6.53;3.47;;;22.40;75.40;;;;;;5009568;28;20019;-73
2022/04/04 12:03:29;;;;;;;7.82;4.40;;;22.40;75.20;;;;;;5008891;28;20622;-72
2022/04/04 12:06:35;;;;;;;6.60;3.47;;;22.40;74.80;;;;;;5006122;28;20025;-69
2022/04/04 12:09:51;;;;;;;6.55;3.00;;;22.50;74.50;;;;;;5010570;28;20511;-70
2022/04/04 12:12:57;;;;;;;4.03;2.73;;;22.50;74.80;;;;;;5007527;28;20022;-72
2022/04/04 12:16:07;;;;;;;4.47;2.60;;;22.60;73.90;;;;;;5005876;28;20803;-72
2022/04/04 12:19:13;;;;;;;5.00;2.60;;;22.70;73.70;;;;;;5007388;28;20022;-74
2022/04/04 12:25:43;;;;;;;4.38;2.10;;;22.80;73.20;;;;;;5006982;28;20045;-75
2022/04/04 12:28:49;;;;;;;6.18;2.50;;;22.90;72.90;;;;;;5007558;28;20424;-73
2022/04/04 12:31:56;;;;;;;5.00;2.70;;;22.90;72.60;;;;;;5007557;28;20018;-72
2022/04/04 12:35:17;;;;;;;5.57;2.72;;;23.10;72.50;;;;;;5009767;28;20036;-74
2022/04/04 12:38:26;;;;;;;15.40;3.60;;;23.10;72.00;;;;;;5008025;28;20040;-74
2022/04/04 12:41:44;;;;;;;13.15;2.88;;;23.20;71.40;;;;;;5007565;28;20078;-72
2022/04/04 12:44:50;;;;;;;6.50;2.50;;;23.20;71.00;;;;;;5007410;28;20539;-72
2022/04/04 12:47:57;;;;;;;6.15;2.92;;;23.30;70.70;;;;;;5007534;28;20038;-73
2022/04/04 12:51:06;;;;;;;3.70;2.15;;;23.30;70.70;;;;;;5006054;28;20044;-74
2022/04/04 12:54:27;;;;;;;8.57;2.33;;;23.40;70.70;;;;;;5004910;28;20033;-73
2022/04/04 12:57:33;;;;;;;5.00;2.38;;;23.40;70.20;;;;;;5009462;28;20045;-75
2022/04/04 13:00:45;;;;;;;5.97;2.80;;;23.40;69.60;;;;;;5008716;28;20032;-75
2022/04/04 13:03:57;;;;;;;5.97;2.28;;;23.40;69.20;;;;;;5008296;28;20020;-75
2022/04/04 13:07:03;;;;;;;7.60;2.88;;;23.40;69.60;;;;;;5008824;28;20428;-71
2022/04/04 13:10:12;;;;;;;11.02;2.72;;;23.50;69.70;;;;;;5008083;28;20409;-75
2022/04/04 13:13:30;;;;;;;8.20;2.22;;;23.60;69.80;;;;;;5003578;28;20029;-72
2022/04/04 13:16:36;;;;;;;2.63;1.63;;;23.70;69.90;;;;;;5007823;28;20460;-75
2022/04/04 13:19:45;;;;;;;7.68;2.00;;;23.70;69.30;;;;;;5007509;28;20044;-72
2022/04/04 13:22:52;;;;;;;10.13;2.33;;;23.80;68.80;;;;;;5008553;28;20033;-72
2022/04/04 13:25:58;;;;;;;2.53;1.70;;;23.80;68.20;;;;;;5007163;28;20014;-73
2022/04/04 13:28:44;;;;;;;;;;;23.90;68.20;;;;;;5004427;28;20038;-75
2022/04/04 13:31:50;;;;;;;5.97;2.70;;;23.90;67.30;;;;;;5005309;28;19910;-75
2022/04/04 13:34:35;;;;;;;;;;;24.00;67.30;;;;;;5002487;28;20536;-74
2022/04/04 13:37:42;;;;;;;10.98;2.08;;;24.00;67.00;;;;;;5001543;28;19905;-75
2022/04/04 13:40:28;;;;;;;;;;;24.00;67.00;;;;;;5006194;28;20024;-74
2022/04/04 13:43:14;;;;;;;;;;;24.00;66.90;;;;;;5006077;28;19905;-74